Flight Track Log - Related Links

Times and Time Zones

All times are in EDT time to prevent confusion due to time zone crossing. See the SKW5252 flight status page for this flight to view local times or setup timezone preferences in your user account.

Time Position Orientation Groundspeed Altitude Reporting Facility
EDT Latitude Longitude Course Direction KTS MPH feet Rate Location/Type
Mon 07:00:23 PM 29.9764 -95.2983 332° Northwest 182 209 700  Level Houston Center
Mon 07:01:28 PM 30.0278 -95.2836 14° North 225 259 2,700 1,843 Climbing Houston Center
Mon 07:02:30 PM 30.0917 -95.3156 337° Northwest 244 281 4,600 2,032 Climbing Houston Center
Mon 07:03:32 PM 30.1558 -95.3647 326° Northwest 271 312 6,900 2,177 Climbing Houston Center
Mon 07:04:00 PM 30.4986 -95.6325 334° Northwest  Level FlightAware Approximate
Mon 07:04:34 PM 30.2236 -95.4153 327° Northwest 285 328 9,100  Level Houston Center
Mon 07:05:00 PM 30.6037 -95.6835 332° Northwest  Level FlightAware Approximate
Mon 07:05:36 PM 30.3053 -95.4783 326° Northwest 292 336 11,100  Level Houston Center
Mon 07:06:38 PM 30.3789 -95.5353 326° Northwest 315 362 13,200 1,597 Climbing Houston Center
Mon 07:07:40 PM 30.4539 -95.5875 329° Northwest 315 362 14,400 1,016 Climbing Houston Center
Mon 07:08:42 PM 30.5347 -95.6508 326° Northwest 342 394 15,300 919 Climbing Houston Center
Mon 07:09:44 PM 30.6278 -95.6992 336° Northwest 361 415 16,300 1,016 Climbing Houston Center
Mon 07:10:46 PM 30.7303 -95.7550 335° Northwest 371 427 17,400 968 Climbing Houston Center
Mon 07:11:48 PM 30.8281 -95.8067 336° Northwest 378 435 18,300 919 Climbing Houston Center
Mon 07:12:50 PM 30.9258 -95.8603 335° Northwest 383 441 19,300 871 Climbing Houston Center
Mon 07:13:52 PM 31.0244 -95.9144 335° Northwest 387 445 20,100 871 Climbing Houston Center
Mon 07:14:54 PM 31.1442 -95.9764 336° Northwest 390 449 21,100 823 Climbing Houston Center
Mon 07:15:56 PM 31.2494 -96.0167 342° North 392 451 21,800 585 Climbing Houston Center
Mon 07:16:57 PM 31.3553 -96.0578 342° North 396 456 22,300 486 Climbing Houston Center
Mon 07:17:47 PM 31.4347 -96.0867 343° North 404 465 22,700 482 Climbing Fort Worth Center
Mon 07:18:49 PM 31.5425 -96.1297 341° North 409 471 23,200 532 Climbing Fort Worth Center
Mon 07:19:51 PM 31.6744 -96.1800 342° North 413 475 23,800 532 Climbing Fort Worth Center
Mon 07:20:53 PM 31.7836 -96.2231 341° North 415 478 24,300 484 Climbing Fort Worth Center
Mon 07:21:55 PM 31.9003 -96.2683 342° North 414 476 24,800 484 Climbing Fort Worth Center
Mon 07:22:57 PM 32.0103 -96.3114 342° North 414 476 25,300 484 Climbing Fort Worth Center
Mon 07:23:59 PM 32.1200 -96.3550 341° North 414 476 25,800 484 Climbing Fort Worth Center
Mon 07:25:01 PM 32.2206 -96.4153 333° Northwest 409 471 26,300 484 Climbing Fort Worth Center
Mon 07:26:03 PM 32.3050 -96.5125 316° Northwest 420 483 26,800 532 Climbing Fort Worth Center
Mon 07:27:05 PM 32.4072 -96.6261 317° Northwest 419 482 27,400 532 Climbing Fort Worth Center
Mon 07:28:07 PM 32.4953 -96.7139 320° Northwest 416 479 27,900 484 Climbing Fort Worth Center
Mon 07:29:09 PM 32.6083 -96.7231 356° North 402 463 28,400 484 Climbing Fort Worth Center
Mon 07:30:11 PM 32.7194 -96.7344 355° North 403 464 28,900 484 Climbing Fort Worth Center
Mon 07:31:13 PM 32.8303 -96.7472 354° North 403 464 29,400 532 Climbing Fort Worth Center
Mon 07:32:15 PM 32.9636 -96.7589 356° North 403 464 30,000 290 Climbing Fort Worth Center
Mon 07:33:17 PM 33.0753 -96.7694 355° North 405 466 30,000  Level Fort Worth Center
Mon 07:34:19 PM 33.1917 -96.7847 354° North 422 486 30,000  Level Fort Worth Center
Mon 07:35:21 PM 33.3044 -96.8325 341° North 437 503 30,000  Level Fort Worth Center
Mon 07:36:23 PM 33.4203 -96.8819 340° North 444 511 30,000  Level Fort Worth Center
Mon 07:37:25 PM 33.5600 -96.9378 342° North 445 512 30,000  Level Fort Worth Center
Mon 07:38:27 PM 33.6622 -97.0150 328° Northwest 443 510 30,000  Level Fort Worth Center
Mon 07:39:29 PM 33.7339 -97.1397 305° West 453 521 30,000  Level Fort Worth Center
Mon 07:40:31 PM 33.7989 -97.2692 301° West 455 524 30,000 432 Level Fort Worth Center
Mon 07:41:34 PM 33.8625 -97.3969 301° West 451 519 30,900 912 Climbing Fort Worth Center
Mon 07:42:36 PM 33.9333 -97.5411 301° West 423 487 31,900 532 Climbing Fort Worth Center
Mon 07:43:38 PM 33.9928 -97.6603 301° West 416 479 32,000 48 Climbing Fort Worth Center
Mon 07:44:40 PM 34.0542 -97.7836 301° West 425 489 32,000  Level Fort Worth Center
Mon 07:45:42 PM 34.1100 -97.9011 300° West 433 498 32,000  Level Fort Worth Center
Mon 07:46:44 PM 34.1850 -98.0561 300° West 442 509 32,000  Level Fort Worth Center
Mon 07:47:46 PM 34.2389 -98.1650 301° West 440 506 32,000  Level Fort Worth Center
Mon 07:48:48 PM 34.3122 -98.3200 300° West 441 507 32,000  Level Fort Worth Center
Mon 07:49:50 PM 34.3725 -98.4392 302° West 441 507 32,000  Level Fort Worth Center
Mon 07:50:52 PM 34.4414 -98.5828 300° West 447 514 32,000  Level Fort Worth Center
Mon 07:51:55 PM 34.5036 -98.7125 300° West 447 514 32,000  Level Fort Worth Center
Mon 07:52:57 PM 34.5658 -98.8414 300° West 443 510 32,000  Level Fort Worth Center
Mon 07:53:59 PM 34.6275 -98.9719 300° West 443 510 32,000  Level Fort Worth Center
Mon 07:55:01 PM 34.6881 -99.1008 300° West 442 509 32,000  Level Fort Worth Center
Mon 07:56:03 PM 34.7617 -99.2572 300° West 442 509 32,000  Level Fort Worth Center
Mon 07:57:05 PM 34.8225 -99.3844 300° West 437 503 32,000  Level Fort Worth Center
Mon 07:58:07 PM 34.8822 -99.5106 300° West 431 496 32,000  Level Fort Worth Center
Mon 07:59:09 PM 34.9411 -99.6408 299° West 433 498 32,000  Level Fort Worth Center
Mon 08:00:11 PM 35.0017 -99.7700 300° West 434 499 32,000  Level Fort Worth Center
Mon 08:01:13 PM 35.0619 -99.9000 300° West 435 501 32,000  Level Fort Worth Center
Mon 08:02:16 PM 35.1219 -100.0275 300° West 435 501 32,000  Level Fort Worth Center
Mon 08:03:15 PM 35.1808 -100.1572 299° West 437 503 32,000  Level Albuquerque Center
Mon 08:04:17 PM 35.2500 -100.3117 299° West 435 501 32,000  Level Albuquerque Center
Mon 08:05:19 PM 35.3092 -100.4403 299° West 433 498 32,000  Level Albuquerque Center
Mon 08:06:21 PM 35.3692 -100.5708 299° West 434 499 32,000  Level Albuquerque Center
Mon 08:07:22 PM 35.4306 -100.7083 299° West 433 498 32,000  Level Albuquerque Center
Mon 08:08:24 PM 35.4883 -100.8361 299° West 434 499 32,000  Level Albuquerque Center
Mon 08:09:25 PM 35.5458 -100.9661 299° West 433 498 32,000  Level Albuquerque Center
Mon 08:10:27 PM 35.6031 -101.0947 299° West 433 498 32,000  Level Albuquerque Center
Mon 08:11:28 PM 35.6608 -101.2228 299° West 433 498 32,000  Level Albuquerque Center
Mon 08:12:30 PM 35.7172 -101.3511 298° West 433 498 32,000  Level Albuquerque Center
Mon 08:13:31 PM 35.7747 -101.4806 299° West 433 498 32,000  Level Albuquerque Center
Mon 08:14:33 PM 35.8422 -101.6344 298° West 433 498 32,000  Level Albuquerque Center
Mon 08:15:34 PM 35.8986 -101.7631 298° West 433 498 32,000  Level Albuquerque Center
Mon 08:16:36 PM 35.9547 -101.8917 298° West 432 497 32,000  Level Albuquerque Center
Mon 08:17:37 PM 36.0147 -102.0200 300° West 431 496 32,000  Level Albuquerque Center
Mon 08:18:39 PM 36.0989 -102.1214 316° Northwest 429 494 32,000  Level Albuquerque Center
Mon 08:19:40 PM 36.1814 -102.2242 315° West 425 489 32,000  Level Albuquerque Center
Mon 08:20:42 PM 36.2644 -102.3286 315° West 425 489 32,000  Level Albuquerque Center
Mon 08:21:43 PM 36.3642 -102.4519 315° West 425 489 32,000  Level Albuquerque Center
Mon 08:22:45 PM 36.4453 -102.5553 314° West 424 488 32,000  Level Albuquerque Center
Mon 08:23:46 PM 36.5264 -102.6586 314° West 421 484 32,000  Level Albuquerque Center
Mon 08:24:48 PM 36.5878 -102.7817 302° West 425 489 32,000  Level Albuquerque Center
Mon 08:25:49 PM 36.6472 -102.9042 301° West 425 489 32,000  Level Albuquerque Center
Mon 08:26:51 PM 36.7083 -103.0278 302° West 424 488 32,000  Level Albuquerque Center
Mon 08:27:52 PM 36.7683 -103.1511 301° West 421 484 32,000  Level Albuquerque Center
Mon 08:28:54 PM 36.8406 -103.3011 301° West 421 484 32,000  Level Albuquerque Center
Mon 08:29:56 PM 36.9000 -103.4244 301° West 420 483 32,000  Level Albuquerque Center
Mon 08:30:57 PM 36.9606 -103.5492 301° West 419 482 32,000  Level Albuquerque Center
Mon 08:31:59 PM 37.0203 -103.6708 302° West 416 479 32,000  Level Albuquerque Center
Mon 08:33:01 PM 37.0975 -103.7764 313° West 415 478 32,000  Level Albuquerque Center
Mon 08:34:02 PM 37.1822 -103.8753 317° Northwest 415 478 32,000  Level Albuquerque Center
Mon 08:35:04 PM 37.2811 -103.9711 322° Northwest 415 478 32,000 -80 Level Albuquerque Center
Mon 08:36:32 PM 37.4150 -104.1144 320° Northwest 414 476 31,800 -640 Descending Denver Center
Mon 08:37:34 PM 37.5053 -104.2131 319° Northwest 416 479 30,400 -1,707 Descending Denver Center
Mon 08:38:35 PM 37.6008 -104.2981 325° Northwest 423 487 28,300 -2,098 Descending Denver Center
Mon 08:39:37 PM 37.7089 -104.3511 339° North 419 482 26,100 -2,177 Descending Denver Center
Mon 08:40:39 PM 37.8156 -104.4022 339° North 413 475 23,800 -2,177 Descending Denver Center
Mon 08:41:41 PM 37.9206 -104.4536 339° North 407 468 21,600 -2,129 Descending Denver Center
Mon 08:42:43 PM 38.0236 -104.5028 339° North 400 460 19,400 -1,935 Descending Denver Center
Mon 08:43:45 PM 38.1239 -104.5531 338° Northwest 393 452 17,600 -1,854 Descending Denver Center
Mon 08:44:46 PM 38.2217 -104.6019 339° North 382 440 15,600 -1,707 Descending Denver Center
Mon 08:45:48 PM 38.3336 -104.6419 344° North 358 412 14,100 -1,041 Descending Denver Center
Mon 08:46:47 PM 38.4139 -104.6247 10° North 320 368 13,500 -774 Descending Denver Center
Mon 08:47:52 PM 38.5125 -104.6042 North 323 372 12,500 -945 Descending Denver Center
Mon 08:48:54 PM 38.6053 -104.5853 North 333 383 11,500 -726 Descending Denver Center
Mon 08:49:56 PM 38.6956 -104.5836 North 330 380 11,000 -244 Descending Denver Center
Mon 08:50:57 PM 38.7708 -104.5844 360° North 286 329 11,000 -341 Level Denver Center
Mon 08:51:59 PM 38.8383 -104.5831 North 254 292 10,300 -1,210 Descending Denver Center
Mon 08:53:01 PM 38.8842 -104.6419 315° West 200 230 8,500 -1,403 Descending Denver Center
Mon 08:54:03 PM 38.8819 -104.6997 267° West 183 211 7,400 -953 Descending Denver Center
Mon 08:54:48 PM 38.8517 -104.7167 204° Southwest 149 171 6,800 -800 Descending Denver Center
Mon 08:56:00 PM 38.8000 -104.7000 201° Southwest  Level FlightAware Approximate
Mon 09:03:00 PM 38.8058 -104.7008 201° Southwest  Level Estimated
Mon 09:04:00 PM 38.8000 -104.7000 201° Southwest  Level FlightAware Approximate
Mon 09:05:00 PM 38.8058 -104.7008 201° Southwest  Level Estimated

Login

Don't have an account? Register now (free) for customized features, flight alerts, and more!